createdAt,value
2023-01-30T00:00:52.810Z,75.71
2023-01-30T00:01:52.672Z,76.43
2023-01-30T00:02:59.526Z,77.58
2023-01-30T00:03:52.557Z,77.89
2023-01-30T00:04:52.562Z,77.48
2023-01-30T00:05:52.530Z,79.14
2023-01-30T00:06:52.558Z,76.75
2023-01-30T00:07:52.530Z,77.48
2023-01-30T00:08:52.556Z,78.03
2023-01-30T00:09:52.511Z,78.42
2023-01-30T00:10:52.492Z,78.24
2023-01-30T00:11:52.482Z,78.31
2023-01-30T00:12:52.494Z,78.52
2023-01-30T00:13:52.506Z,79.35
2023-01-30T00:14:52.443Z,77.37
2023-01-30T00:15:52.449Z,78.00
2023-01-30T00:16:52.427Z,77.79
2023-01-30T00:17:52.449Z,78.42
2023-01-30T00:18:52.452Z,79.52
2023-01-30T00:19:52.392Z,78.07
2023-01-30T00:20:52.395Z,76.61
2023-01-30T00:21:52.376Z,77.17
2023-01-30T00:23:00.383Z,79.04
2023-01-30T00:23:52.390Z,79.14
2023-01-30T00:24:52.449Z,79.66
2023-01-30T00:25:52.438Z,79.11
2023-01-30T00:26:52.344Z,78.80
2023-01-30T00:27:52.320Z,78.07
2023-01-30T00:28:52.395Z,78.59
2023-01-30T00:30:02.462Z,79.42
2023-01-30T00:30:52.321Z,79.83
2023-01-30T00:31:52.317Z,79.73
2023-01-30T00:32:52.346Z,79.83
2023-01-30T00:33:52.257Z,80.05
2023-01-30T00:34:52.257Z,79.63
2023-01-30T00:35:52.244Z,79.00
2023-01-30T00:37:07.133Z,79.32
2023-01-30T00:37:52.232Z,79.11
2023-01-30T00:38:52.252Z,79.42
2023-01-30T00:39:52.196Z,79.46
2023-01-30T00:40:52.190Z,79.56
2023-01-30T00:41:52.177Z,79.98
2023-01-30T00:42:52.178Z,79.66
2023-01-30T00:43:52.212Z,80.40
2023-01-30T00:44:52.162Z,80.60
2023-01-30T00:45:52.163Z,81.02
2023-01-30T00:46:52.154Z,80.88
2023-01-30T00:47:52.129Z,80.36
2023-01-30T00:48:52.149Z,80.26
2023-01-30T00:49:52.102Z,80.08
2023-01-30T00:50:52.096Z,80.08
2023-01-30T00:51:52.103Z,79.87
2023-01-30T00:52:52.091Z,79.98
2023-01-30T00:53:52.062Z,80.81
2023-01-30T00:54:52.083Z,80.40
2023-01-30T00:55:52.095Z,80.43
2023-01-30T00:56:52.112Z,80.85
2023-01-30T00:57:52.025Z,80.74
2023-01-30T00:58:52.026Z,81.05
2023-01-30T00:59:52.031Z,81.05
2023-01-30T01:00:51.999Z,80.85
2023-01-30T01:01:52.043Z,81.89
2023-01-30T01:02:52.008Z,80.71
2023-01-30T01:03:51.968Z,80.40
2023-01-30T01:04:51.974Z,81.65
2023-01-30T01:05:51.945Z,80.50
2023-01-30T01:06:52.067Z,81.23
2023-01-30T01:07:51.938Z,81.65
2023-01-30T01:08:51.916Z,81.33
2023-01-30T01:09:51.901Z,81.79
2023-01-30T01:10:51.901Z,82.51
2023-01-30T01:11:51.920Z,82.20
2023-01-30T01:12:51.922Z,82.82
2023-01-30T01:13:51.869Z,82.51
2023-01-30T01:14:51.884Z,82.82
2023-01-30T01:15:51.889Z,83.97
2023-01-30T01:16:51.875Z,82.62
2023-01-30T01:17:51.835Z,83.56
2023-01-30T01:18:51.843Z,83.10
2023-01-30T01:19:51.816Z,82.79
2023-01-30T01:20:51.836Z,82.37
2023-01-30T01:21:51.849Z,81.33
2023-01-30T01:22:51.785Z,80.81
2023-01-30T01:23:51.782Z,80.50
2023-01-30T01:24:51.797Z,80.71
2023-01-30T01:25:51.801Z,81.23
2023-01-30T01:26:51.795Z,82.48
2023-01-30T01:27:51.729Z,81.43
2023-01-30T01:28:51.746Z,81.12
2023-01-30T01:29:51.728Z,80.91
2023-01-30T01:30:51.776Z,80.60
2023-01-30T01:31:51.749Z,81.58
2023-01-30T01:32:51.734Z,81.85
2023-01-30T01:33:51.705Z,83.00
2023-01-30T01:34:51.718Z,82.27
2023-01-30T01:35:51.671Z,82.13
2023-01-30T01:36:53.893Z,81.26
2023-01-30T01:37:51.675Z,80.94
2023-01-30T01:38:51.678Z,80.11
2023-01-30T01:39:51.635Z,79.28
2023-01-30T01:40:51.614Z,79.28
2023-01-30T01:41:51.613Z,79.17
2023-01-30T01:42:51.602Z,79.07
2023-01-30T01:43:51.585Z,79.59
2023-01-30T01:44:51.617Z,80.01
2023-01-30T01:45:51.660Z,79.42
2023-01-30T01:46:51.557Z,79.21
2023-01-30T01:47:51.541Z,79.77
2023-01-30T01:48:51.540Z,80.50
2023-01-30T01:49:51.546Z,81.85
2023-01-30T01:50:51.533Z,81.65
2023-01-30T01:51:51.530Z,81.19
2023-01-30T01:52:52.204Z,80.15
2023-01-30T01:53:51.512Z,79.83
2023-01-30T01:54:51.494Z,79.83
2023-01-30T01:55:51.467Z,80.05
2023-01-30T01:56:51.455Z,79.94
2023-01-30T01:57:51.469Z,79.32
2023-01-30T01:58:51.522Z,79.73
2023-01-30T01:59:51.445Z,81.09
2023-01-30T02:00:51.476Z,82.23
2023-01-30T02:01:51.428Z,80.74
2023-01-30T02:02:51.428Z,80.74
2023-01-30T02:03:51.413Z,79.45
2023-01-30T02:04:51.387Z,79.24
2023-01-30T02:05:51.384Z,78.55
2023-01-30T02:06:51.357Z,79.07
2023-01-30T02:07:51.347Z,79.73
2023-01-30T02:08:51.359Z,80.46
2023-01-30T02:09:51.365Z,81.19
2023-01-30T02:10:51.321Z,80.98
2023-01-30T02:11:51.322Z,80.36
2023-01-30T02:12:51.310Z,80.15
2023-01-30T02:13:51.285Z,80.36
2023-01-30T02:14:51.290Z,80.74
2023-01-30T02:15:51.308Z,79.69
2023-01-30T02:16:51.282Z,79.38
2023-01-30T02:17:51.288Z,79.69
2023-01-30T02:18:51.265Z,80.43
2023-01-30T02:19:51.256Z,79.80
2023-01-30T02:20:51.274Z,80.22
2023-01-30T02:21:51.231Z,80.74
2023-01-30T02:22:51.206Z,80.43
2023-01-30T02:23:51.205Z,79.80
2023-01-30T02:24:51.187Z,80.22
2023-01-30T02:25:51.161Z,80.11
2023-01-30T02:26:51.160Z,79.80
2023-01-30T02:27:51.154Z,80.01
2023-01-30T02:28:51.140Z,80.77
2023-01-30T02:29:51.142Z,80.15
2023-01-30T02:30:51.216Z,81.09
2023-01-30T02:31:51.155Z,81.43
2023-01-30T02:32:51.099Z,81.65
2023-01-30T02:33:51.114Z,81.99
2023-01-30T02:34:51.112Z,82.41
2023-01-30T02:35:51.100Z,82.72
2023-01-30T02:36:51.067Z,83.04
2023-01-30T02:37:51.053Z,83.87
2023-01-30T02:38:51.047Z,84.14
2023-01-30T02:39:51.035Z,83.10
2023-01-30T02:40:51.057Z,82.03
2023-01-30T02:41:51.017Z,81.29
2023-01-30T02:42:51.012Z,81.92
2023-01-30T02:43:51.014Z,81.92
2023-01-30T02:44:51.000Z,81.50
2023-01-30T02:45:51.053Z,80.98
2023-01-30T02:46:50.993Z,81.46
2023-01-30T02:47:51.000Z,80.84
2023-01-30T02:48:50.979Z,80.32
2023-01-30T02:49:50.952Z,80.32
2023-01-30T02:50:50.984Z,80.22
2023-01-30T02:51:50.971Z,80.43
2023-01-30T02:52:50.916Z,80.01
2023-01-30T02:53:50.912Z,80.11
2023-01-30T02:54:50.943Z,80.22
2023-01-30T02:55:50.890Z,81.26
2023-01-30T02:56:50.883Z,81.05
2023-01-30T02:57:50.861Z,82.71
2023-01-30T02:58:50.845Z,80.63
2023-01-30T02:59:50.874Z,80.46
2023-01-30T03:00:50.824Z,82.34
2023-01-30T03:01:50.857Z,82.13
2023-01-30T03:02:50.971Z,82.03
2023-01-30T03:03:50.822Z,81.29
2023-01-30T03:04:50.781Z,81.29
2023-01-30T03:05:50.794Z,81.67
2023-01-30T03:06:50.793Z,81.77
2023-01-30T03:07:50.790Z,81.05
2023-01-30T03:08:50.778Z,82.40
2023-01-30T03:09:50.740Z,81.46
2023-01-30T03:10:50.724Z,81.26
2023-01-30T03:11:50.736Z,81.26
2023-01-30T03:12:50.739Z,81.57
2023-01-30T03:13:50.715Z,80.94
2023-01-30T03:14:50.691Z,80.74
2023-01-30T03:15:50.684Z,82.51
2023-01-30T03:16:50.685Z,81.15
2023-01-30T03:17:50.685Z,82.65
2023-01-30T03:18:50.660Z,82.44
2023-01-30T03:19:50.657Z,82.13
2023-01-30T03:20:50.625Z,82.37
2023-01-30T03:21:50.631Z,82.68
2023-01-30T03:22:50.655Z,83.62
2023-01-30T03:23:50.620Z,84.25
2023-01-30T03:24:50.585Z,82.86
2023-01-30T03:25:50.604Z,82.86
2023-01-30T03:26:50.600Z,82.86
2023-01-30T03:27:50.577Z,82.75
2023-01-30T03:28:50.570Z,83.27
2023-01-30T03:29:50.560Z,82.75
2023-01-30T03:30:50.673Z,82.34
2023-01-30T03:31:50.570Z,81.71
2023-01-30T03:32:50.533Z,81.81
2023-01-30T03:33:50.555Z,82.34
2023-01-30T03:34:50.522Z,83.27
2023-01-30T03:35:50.503Z,82.23
2023-01-30T03:36:50.476Z,82.65
2023-01-30T03:37:50.472Z,83.17
2023-01-30T03:38:50.454Z,82.86
2023-01-30T03:39:50.492Z,82.65
2023-01-30T03:40:50.430Z,82.34
2023-01-30T03:41:50.431Z,82.13
2023-01-30T03:42:50.408Z,81.77
2023-01-30T03:43:50.426Z,81.57
2023-01-30T03:44:50.404Z,81.67
2023-01-30T03:45:50.434Z,81.77
2023-01-30T03:46:50.378Z,81.46
2023-01-30T03:47:50.378Z,81.46
2023-01-30T03:48:50.393Z,81.57
2023-01-30T03:49:50.352Z,81.67
2023-01-30T03:50:50.344Z,81.77
2023-01-30T03:51:50.346Z,81.95
2023-01-30T03:52:50.312Z,81.01
2023-01-30T03:53:50.382Z,81.32
2023-01-30T03:54:50.292Z,81.32
2023-01-30T03:55:50.311Z,81.63
2023-01-30T03:56:50.287Z,81.01
2023-01-30T03:57:50.302Z,80.80
2023-01-30T03:58:50.251Z,80.60
2023-01-30T03:59:50.269Z,80.91
2023-01-30T04:00:50.265Z,80.91
2023-01-30T04:01:50.240Z,81.01
2023-01-30T04:02:50.230Z,80.80
2023-01-30T04:03:50.219Z,81.12
2023-01-30T04:04:50.264Z,81.43
2023-01-30T04:05:50.184Z,81.32
2023-01-30T04:06:50.179Z,80.60
2023-01-30T04:07:50.183Z,81.12
2023-01-30T04:08:50.170Z,81.32
2023-01-30T04:09:50.199Z,82.20
2023-01-30T04:10:50.166Z,82.30
2023-01-30T04:11:50.133Z,82.30
2023-01-30T04:12:50.110Z,81.77
2023-01-30T04:13:50.132Z,82.51
2023-01-30T04:14:50.104Z,82.96
2023-01-30T04:15:50.116Z,83.06
2023-01-30T04:16:50.158Z,83.58
2023-01-30T04:17:50.109Z,85.35
2023-01-30T04:18:50.060Z,83.23
2023-01-30T04:19:50.051Z,82.96
2023-01-30T04:20:50.062Z,83.27
2023-01-30T04:21:50.057Z,83.75
2023-01-30T04:22:50.024Z,83.03
2023-01-30T04:23:50.019Z,83.13
2023-01-30T04:24:49.999Z,83.65
2023-01-30T04:25:49.991Z,83.34
2023-01-30T04:26:50.007Z,83.44
2023-01-30T04:27:50.012Z,83.23
2023-01-30T04:28:49.966Z,82.51
2023-01-30T04:29:49.945Z,83.13
2023-01-30T04:30:49.970Z,83.20
2023-01-30T04:31:49.941Z,83.09
2023-01-30T04:32:49.947Z,82.89
2023-01-30T04:33:49.922Z,82.36
2023-01-30T04:34:49.894Z,82.82
2023-01-30T04:35:49.903Z,83.23
2023-01-30T04:36:49.904Z,83.03
2023-01-30T04:37:49.911Z,83.44
2023-01-30T04:38:49.861Z,83.23
2023-01-30T04:39:49.897Z,83.65
2023-01-30T04:40:49.844Z,83.44
2023-01-30T04:41:49.860Z,83.13
2023-01-30T04:42:49.834Z,83.44
2023-01-30T04:43:49.837Z,83.82
2023-01-30T04:44:49.853Z,82.99
2023-01-30T04:45:50.789Z,82.46
2023-01-30T04:46:49.789Z,82.57
2023-01-30T04:47:49.819Z,81.95
2023-01-30T04:48:49.783Z,81.74
2023-01-30T04:49:49.775Z,81.70
2023-01-30T04:50:49.796Z,81.49
2023-01-30T04:51:49.746Z,81.53
2023-01-30T04:52:49.737Z,81.63
2023-01-30T04:53:49.716Z,82.32
2023-01-30T04:54:49.724Z,81.74
2023-01-30T04:55:49.736Z,81.95
2023-01-30T04:56:49.687Z,83.09
2023-01-30T04:57:49.671Z,83.92
2023-01-30T04:58:49.669Z,82.68
2023-01-30T04:59:49.687Z,82.32
2023-01-30T05:00:49.800Z,82.01
2023-01-30T05:01:49.728Z,81.70
2023-01-30T05:02:49.633Z,81.49
2023-01-30T05:03:49.610Z,81.81
2023-01-30T05:04:49.625Z,81.29
2023-01-30T05:05:49.627Z,81.81
2023-01-30T05:06:49.581Z,80.98
2023-01-30T05:07:49.574Z,80.77
2023-01-30T05:08:49.569Z,80.98
2023-01-30T05:09:49.578Z,80.87
2023-01-30T05:10:49.569Z,80.77
2023-01-30T05:11:49.546Z,81.08
2023-01-30T05:12:49.521Z,81.18
2023-01-30T05:13:49.532Z,81.29
2023-01-30T05:14:49.656Z,81.29
2023-01-30T05:15:49.503Z,81.08
2023-01-30T05:16:49.559Z,80.87
2023-01-30T05:17:49.515Z,80.98
2023-01-30T05:18:49.464Z,81.60
2023-01-30T05:19:49.397Z,81.74
2023-01-30T05:20:49.464Z,81.74
2023-01-30T05:21:49.434Z,81.74
2023-01-30T05:22:49.426Z,82.46
2023-01-30T05:23:49.409Z,82.15
2023-01-30T05:24:49.357Z,81.95
2023-01-30T05:25:49.416Z,81.95
2023-01-30T05:26:49.418Z,82.36
2023-01-30T05:27:49.367Z,82.12
2023-01-30T05:28:49.316Z,81.91
2023-01-30T05:29:49.356Z,82.12
2023-01-30T05:30:49.406Z,81.60
2023-01-30T05:31:49.348Z,81.91
2023-01-30T05:32:49.339Z,81.70
2023-01-30T05:33:49.321Z,81.91
2023-01-30T05:34:49.306Z,81.60
2023-01-30T05:35:49.320Z,81.25
2023-01-30T05:36:49.327Z,81.29
2023-01-30T05:37:49.283Z,82.74
2023-01-30T05:38:49.313Z,81.98
2023-01-30T05:39:49.261Z,81.46
2023-01-30T05:40:49.249Z,80.83
2023-01-30T05:41:49.252Z,81.35
2023-01-30T05:42:49.215Z,80.83
2023-01-30T05:43:49.211Z,80.83
2023-01-30T05:44:49.225Z,81.25
2023-01-30T05:45:49.199Z,81.49
2023-01-30T05:46:49.268Z,81.60
2023-01-30T05:47:49.175Z,82.01
2023-01-30T05:48:49.151Z,82.01
2023-01-30T05:49:49.168Z,82.43
2023-01-30T05:50:49.163Z,81.91
2023-01-30T05:51:51.299Z,81.81
2023-01-30T05:52:49.077Z,82.22
2023-01-30T05:53:49.173Z,82.43
2023-01-30T05:54:49.124Z,82.01
2023-01-30T05:55:49.104Z,81.81
2023-01-30T05:56:49.100Z,81.91
2023-01-30T05:57:49.068Z,82.99
2023-01-30T05:58:49.059Z,82.36
2023-01-30T05:59:49.059Z,82.89
2023-01-30T06:00:49.006Z,83.82
2023-01-30T06:01:49.044Z,82.64
2023-01-30T06:02:49.114Z,82.46
2023-01-30T06:03:49.153Z,82.99
2023-01-30T06:04:48.995Z,83.92
2023-01-30T06:05:49.027Z,82.78
2023-01-30T06:06:48.984Z,82.78
2023-01-30T06:07:49.017Z,82.89
2023-01-30T06:08:48.958Z,83.09
2023-01-30T06:09:48.897Z,82.99
2023-01-30T06:10:48.971Z,82.89
2023-01-30T06:11:48.949Z,83.40
2023-01-30T06:12:48.934Z,83.82
2023-01-30T06:13:48.918Z,83.72
2023-01-30T06:14:48.935Z,83.30
2023-01-30T06:15:48.929Z,82.84
2023-01-30T06:16:48.908Z,82.74
2023-01-30T06:17:48.892Z,83.09
2023-01-30T06:18:48.908Z,83.16
2023-01-30T06:19:48.853Z,83.26
2023-01-30T06:20:48.916Z,83.16
2023-01-30T06:21:48.839Z,83.16
2023-01-30T06:22:48.849Z,83.78
2023-01-30T06:23:48.813Z,84.09
2023-01-30T06:24:48.825Z,83.78
2023-01-30T06:25:48.901Z,82.53
2023-01-30T06:26:48.782Z,82.84
2023-01-30T06:27:48.785Z,83.16
2023-01-30T06:28:48.793Z,83.05
2023-01-30T06:29:48.772Z,83.26
2023-01-30T06:30:48.915Z,83.47
2023-01-30T06:31:48.755Z,83.68
2023-01-30T06:32:48.737Z,83.47
2023-01-30T06:33:48.725Z,83.26
2023-01-30T06:34:48.709Z,83.37
2023-01-30T06:35:48.731Z,83.58
2023-01-30T06:36:48.693Z,83.47
2023-01-30T06:37:48.689Z,83.68
2023-01-30T06:38:48.642Z,83.78
2023-01-30T06:39:48.595Z,84.09
2023-01-30T06:40:48.670Z,83.99
2023-01-30T06:41:48.638Z,83.92
2023-01-30T06:42:48.597Z,84.30
2023-01-30T06:43:48.626Z,84.09
2023-01-30T06:44:48.633Z,83.89
2023-01-30T06:45:48.648Z,84.09
2023-01-30T06:46:48.597Z,83.99
2023-01-30T06:47:48.543Z,83.68
2023-01-30T06:48:48.564Z,83.89
2023-01-30T06:49:48.507Z,84.20
2023-01-30T06:50:48.496Z,84.20
2023-01-30T06:51:48.507Z,83.78
2023-01-30T06:52:48.480Z,83.99
2023-01-30T06:53:48.469Z,83.99
2023-01-30T06:54:48.512Z,84.30
2023-01-30T06:55:48.464Z,84.51
2023-01-30T06:56:48.464Z,83.99
2023-01-30T06:57:48.437Z,84.51
2023-01-30T06:58:48.412Z,84.30
2023-01-30T06:59:48.450Z,84.41
2023-01-30T07:00:48.442Z,84.41
2023-01-30T07:01:48.408Z,83.89
2023-01-30T07:02:48.367Z,84.09
2023-01-30T07:03:48.495Z,84.30
2023-01-30T07:04:48.397Z,84.30
2023-01-30T07:05:48.375Z,84.92
2023-01-30T07:06:48.341Z,84.61
2023-01-30T07:07:48.339Z,83.89
2023-01-30T07:08:48.369Z,83.99
2023-01-30T07:10:02.155Z,84.05
2023-01-30T07:10:48.339Z,84.20
2023-01-30T07:11:48.313Z,84.41
2023-01-30T07:12:48.288Z,84.41
2023-01-30T07:13:48.304Z,84.30
2023-01-30T07:14:48.267Z,84.51
2023-01-30T07:15:48.248Z,84.72
2023-01-30T07:16:48.371Z,84.92
2023-01-30T07:17:48.226Z,84.72
2023-01-30T07:18:48.243Z,84.82
2023-01-30T07:19:48.222Z,84.72
2023-01-30T07:20:48.239Z,84.51
2023-01-30T07:21:48.201Z,84.51
2023-01-30T07:22:48.192Z,84.51
2023-01-30T07:23:48.173Z,84.82
2023-01-30T07:24:48.225Z,84.82
2023-01-30T07:25:48.192Z,84.41
2023-01-30T07:26:48.200Z,84.41
2023-01-30T07:27:48.146Z,84.72
2023-01-30T07:28:48.153Z,84.89
2023-01-30T07:29:48.102Z,84.99
2023-01-30T07:30:48.145Z,85.10
2023-01-30T07:31:48.115Z,84.47
2023-01-30T07:32:48.098Z,84.47
2023-01-30T07:33:48.069Z,85.10
2023-01-30T07:34:48.071Z,85.41
2023-01-30T07:35:48.073Z,85.72
2023-01-30T07:36:48.115Z,85.93
2023-01-30T07:37:48.078Z,86.49
2023-01-30T07:38:48.062Z,86.90
2023-01-30T07:39:48.015Z,87.07
2023-01-30T07:40:47.999Z,86.69
2023-01-30T07:41:48.032Z,86.90
2023-01-30T07:42:48.274Z,86.59
2023-01-30T07:43:47.961Z,86.80
2023-01-30T07:44:47.967Z,86.49
2023-01-30T07:45:47.970Z,86.38
2023-01-30T07:46:47.985Z,86.49
2023-01-30T07:47:47.923Z,87.32
2023-01-30T07:48:47.931Z,87.21
2023-01-30T07:49:48.076Z,87.32
2023-01-30T07:50:47.909Z,87.63
2023-01-30T07:51:47.891Z,87.21
2023-01-30T07:52:47.904Z,87.21
2023-01-30T07:53:47.927Z,87.52
2023-01-30T07:54:47.892Z,87.21
2023-01-30T07:55:47.857Z,87.42
2023-01-30T07:56:47.843Z,87.42
2023-01-30T07:57:47.837Z,87.52
2023-01-30T07:58:47.841Z,87.69
2023-01-30T07:59:47.834Z,87.38
2023-01-30T08:00:47.986Z,87.17
2023-01-30T08:01:47.818Z,87.07
2023-01-30T08:02:47.773Z,87.07
2023-01-30T08:03:47.797Z,87.69
2023-01-30T08:04:47.850Z,87.69
2023-01-30T08:05:47.779Z,87.27
2023-01-30T08:06:47.783Z,87.48
2023-01-30T08:07:47.728Z,87.17
2023-01-30T08:08:47.732Z,87.27
2023-01-30T08:09:47.737Z,87.48
2023-01-30T08:10:47.700Z,87.59
2023-01-30T08:11:47.881Z,87.38
2023-01-30T08:12:47.691Z,87.48
2023-01-30T08:13:47.666Z,87.65
2023-01-30T08:14:47.685Z,87.24
2023-01-30T08:15:47.862Z,86.82
2023-01-30T08:16:47.638Z,86.93
2023-01-30T08:17:47.660Z,87.03
2023-01-30T08:18:47.615Z,86.93
2023-01-30T08:19:47.742Z,86.82
2023-01-30T08:20:47.623Z,86.61
2023-01-30T08:21:47.625Z,87.03
2023-01-30T08:22:47.923Z,87.24
2023-01-30T08:23:47.605Z,86.72
2023-01-30T08:24:47.627Z,86.61
2023-01-30T08:25:47.551Z,86.61
2023-01-30T08:26:47.629Z,86.93
2023-01-30T08:27:47.552Z,86.51
2023-01-30T08:28:47.525Z,86.51
2023-01-30T08:29:49.025Z,86.72
2023-01-30T08:30:47.545Z,86.41
2023-01-30T08:31:47.543Z,86.51
2023-01-30T08:32:47.522Z,86.30
2023-01-30T08:33:47.514Z,86.61
2023-01-30T08:34:47.464Z,86.30
2023-01-30T08:35:47.481Z,86.36
2023-01-30T08:36:47.461Z,86.26
2023-01-30T08:37:47.637Z,86.05
2023-01-30T08:38:47.440Z,86.26
2023-01-30T08:39:47.409Z,85.85
2023-01-30T08:40:47.425Z,85.95
2023-01-30T08:41:47.435Z,86.26
2023-01-30T08:42:47.513Z,86.68
2023-01-30T08:43:47.363Z,86.36
2023-01-30T08:44:47.371Z,86.26
2023-01-30T08:45:47.492Z,86.47
2023-01-30T08:46:47.406Z,86.05
2023-01-30T08:47:47.369Z,86.36
2023-01-30T08:48:50.280Z,86.78
2023-01-30T08:49:47.299Z,86.47
2023-01-30T08:50:47.353Z,86.54
2023-01-30T08:51:47.284Z,85.91
2023-01-30T08:52:47.348Z,85.81
2023-01-30T08:53:47.390Z,86.12
2023-01-30T08:54:47.255Z,86.33
2023-01-30T08:55:47.260Z,86.47
2023-01-30T08:56:47.239Z,86.68
2023-01-30T08:57:47.264Z,86.64
2023-01-30T08:58:47.245Z,86.22
2023-01-30T08:59:47.216Z,86.47
2023-01-30T09:00:48.727Z,86.54
2023-01-30T09:01:47.187Z,86.12
2023-01-30T09:02:50.053Z,85.95
2023-01-30T09:03:47.236Z,86.05
2023-01-30T09:04:47.164Z,86.36
2023-01-30T09:05:47.166Z,86.36
2023-01-30T09:06:47.224Z,86.43
2023-01-30T09:07:47.139Z,86.47
2023-01-30T09:08:47.140Z,86.12
2023-01-30T09:09:47.124Z,85.91
2023-01-30T09:10:47.098Z,85.81
2023-01-30T09:11:47.249Z,85.71
2023-01-30T09:12:47.097Z,85.29
2023-01-30T09:13:48.796Z,85.50
2023-01-30T09:14:47.055Z,85.39
2023-01-30T09:15:47.086Z,85.29
2023-01-30T09:16:47.110Z,85.29
2023-01-30T09:17:47.067Z,85.19
2023-01-30T09:18:47.029Z,84.98
2023-01-30T09:19:47.057Z,85.39
2023-01-30T09:20:46.995Z,85.35
2023-01-30T09:21:46.989Z,84.42
2023-01-30T09:22:47.005Z,84.52
2023-01-30T09:23:46.977Z,84.42
2023-01-30T09:24:46.968Z,84.21
2023-01-30T09:25:47.001Z,84.21
2023-01-30T09:26:46.982Z,83.80
2023-01-30T09:27:46.984Z,83.59
2023-01-30T09:28:46.943Z,83.69
2023-01-30T09:29:46.961Z,83.90
2023-01-30T09:30:46.997Z,84.00
2023-01-30T09:31:46.963Z,83.69
2023-01-30T09:32:46.965Z,83.80
2023-01-30T09:33:46.899Z,83.86
2023-01-30T09:34:46.854Z,83.55
2023-01-30T09:35:46.863Z,83.55
2023-01-30T09:36:46.858Z,83.76
2023-01-30T09:37:46.838Z,83.55
2023-01-30T09:38:46.848Z,83.55
2023-01-30T09:39:46.805Z,83.65
2023-01-30T09:40:46.823Z,83.65
2023-01-30T09:41:46.783Z,83.86
2023-01-30T09:42:46.779Z,83.45
2023-01-30T09:43:46.804Z,83.24
2023-01-30T09:44:46.784Z,83.14
2023-01-30T09:45:46.904Z,83.20
2023-01-30T09:46:46.801Z,82.82
2023-01-30T09:47:46.782Z,82.79
2023-01-30T09:48:46.843Z,82.58
2023-01-30T09:49:46.740Z,82.58
2023-01-30T09:50:46.730Z,82.68
2023-01-30T09:51:46.723Z,82.48
2023-01-30T09:52:46.703Z,82.48
2023-01-30T09:53:46.699Z,82.37
2023-01-30T09:54:46.693Z,82.48
2023-01-30T09:55:46.662Z,82.27
2023-01-30T09:56:46.720Z,82.34
2023-01-30T09:57:46.717Z,81.71
2023-01-30T09:58:46.837Z,81.51
2023-01-30T09:59:46.671Z,81.30
2023-01-30T10:00:46.609Z,81.71
2023-01-30T10:01:46.593Z,81.51
2023-01-30T10:02:46.625Z,81.92
2023-01-30T10:03:46.613Z,82.44
2023-01-30T10:05:00.546Z,82.23
2023-01-30T10:05:46.608Z,82.44
2023-01-30T10:06:46.545Z,82.86
2023-01-30T10:07:46.633Z,83.06
2023-01-30T10:08:46.556Z,83.16
2023-01-30T10:09:46.509Z,83.26
2023-01-30T10:10:47.321Z,83.78
2023-01-30T10:11:46.529Z,84.09
2023-01-30T10:12:46.492Z,84.20
2023-01-30T10:13:46.511Z,83.89
2023-01-30T10:14:46.465Z,84.20
2023-01-30T10:15:46.469Z,83.99
2023-01-30T10:16:46.464Z,83.78
2023-01-30T10:17:46.493Z,84.09
2023-01-30T10:18:46.526Z,84.20
2023-01-30T10:19:46.509Z,83.99
2023-01-30T10:20:46.425Z,83.78
2023-01-30T10:21:46.408Z,83.33
2023-01-30T10:22:46.405Z,83.12
2023-01-30T10:23:46.489Z,83.58
2023-01-30T10:24:46.441Z,82.95
2023-01-30T10:25:46.356Z,83.33
2023-01-30T10:26:46.683Z,82.92
2023-01-30T10:27:46.348Z,82.60
2023-01-30T10:28:52.425Z,82.71
2023-01-30T10:29:46.326Z,82.71
2023-01-30T10:30:46.382Z,82.60
2023-01-30T10:31:46.469Z,82.46
2023-01-30T10:32:46.310Z,82.05
2023-01-30T10:33:46.309Z,81.74
2023-01-30T10:34:46.270Z,81.60
2023-01-30T10:35:46.297Z,81.49
2023-01-30T10:36:46.280Z,81.29
2023-01-30T10:37:46.251Z,81.09
2023-01-30T10:38:46.229Z,81.29
2023-01-30T10:39:54.814Z,81.39
2023-01-30T10:40:46.244Z,81.05
2023-01-30T10:41:46.216Z,80.53
2023-01-30T10:42:46.229Z,80.32
2023-01-30T10:43:46.212Z,80.43
2023-01-30T10:44:46.172Z,80.18
2023-01-30T10:45:46.156Z,80.01
2023-01-30T10:46:46.165Z,79.97
2023-01-30T10:47:47.888Z,79.97
2023-01-30T10:48:46.660Z,80.08
2023-01-30T10:49:46.229Z,80.22
2023-01-30T10:50:47.029Z,80.43
2023-01-30T10:51:46.166Z,80.63
2023-01-30T10:52:46.121Z,80.49
2023-01-30T10:53:46.126Z,80.94
2023-01-30T10:54:46.104Z,81.15
2023-01-30T10:55:46.068Z,81.35
2023-01-30T10:56:46.071Z,81.73
2023-01-30T10:57:46.057Z,82.45
2023-01-30T10:58:46.023Z,82.90
2023-01-30T10:59:46.041Z,83.28
2023-01-30T11:00:46.027Z,83.18
2023-01-30T11:01:46.105Z,83.18
2023-01-30T11:02:45.990Z,83.04
2023-01-30T11:03:45.986Z,82.42
2023-01-30T11:04:45.992Z,82.10
2023-01-30T11:05:45.976Z,81.66
2023-01-30T11:06:46.124Z,81.10
2023-01-30T11:07:45.936Z,80.28
2023-01-30T11:08:45.935Z,79.86
2023-01-30T11:09:45.952Z,79.45
2023-01-30T11:10:46.198Z,79.31
2023-01-30T11:11:45.949Z,78.90
2023-01-30T11:12:45.947Z,79.00
2023-01-30T11:13:46.018Z,78.69
2023-01-30T11:14:46.081Z,78.34
2023-01-30T11:15:45.983Z,77.73
2023-01-30T11:16:45.868Z,77.62
2023-01-30T11:17:45.844Z,77.52
2023-01-30T11:19:45.855Z,77.31
2023-01-30T11:20:48.036Z,77.52
2023-01-30T11:21:45.823Z,77.42
2023-01-30T11:22:46.190Z,77.31
2023-01-30T11:23:45.778Z,77.22
2023-01-30T11:24:45.867Z,77.73
2023-01-30T11:25:45.786Z,77.73
2023-01-30T11:26:48.202Z,77.11
2023-01-30T11:27:45.736Z,76.70
2023-01-30T11:28:47.734Z,76.59
2023-01-30T11:29:45.719Z,76.59
2023-01-30T11:30:45.694Z,76.90
2023-01-30T11:31:45.797Z,76.70
2023-01-30T11:32:45.764Z,76.70
2023-01-30T11:33:45.746Z,76.46
2023-01-30T11:34:45.682Z,76.15
2023-01-30T11:35:45.661Z,76.35
2023-01-30T11:36:45.925Z,75.84
2023-01-30T11:37:45.703Z,75.94
2023-01-30T11:38:45.628Z,76.25
2023-01-30T11:39:45.644Z,75.84
2023-01-30T11:40:45.645Z,75.94
2023-01-30T11:41:45.604Z,75.84
2023-01-30T11:42:45.651Z,75.94
2023-01-30T11:43:45.603Z,75.84
2023-01-30T11:44:45.656Z,75.98
2023-01-30T11:45:45.661Z,76.29
2023-01-30T11:46:45.575Z,76.29
2023-01-30T11:47:56.599Z,76.15
2023-01-30T11:49:02.032Z,76.39
2023-01-30T11:50:01.835Z,76.25
2023-01-30T11:50:49.450Z,76.04
2023-01-30T11:51:45.516Z,75.94
2023-01-30T11:52:45.543Z,76.04
2023-01-30T11:53:45.507Z,75.60
2023-01-30T11:54:45.469Z,75.29
2023-01-30T11:55:56.646Z,75.63
2023-01-30T11:56:45.464Z,75.49
2023-01-30T11:57:45.456Z,74.95
2023-01-30T11:58:45.475Z,74.84
2023-01-30T11:59:45.451Z,75.08
2023-01-30T12:00:45.459Z,75.18
2023-01-30T12:01:45.483Z,75.18
2023-01-30T12:02:45.430Z,75.32
2023-01-30T12:03:45.414Z,75.94
2023-01-30T12:04:45.445Z,75.94
2023-01-30T12:05:45.406Z,75.94
2023-01-30T12:06:45.358Z,76.18
2023-01-30T12:07:45.370Z,76.59
2023-01-30T12:08:45.434Z,77.11
2023-01-30T12:09:45.354Z,77.31
2023-01-30T12:10:45.312Z,77.01
2023-01-30T12:11:45.407Z,77.11
2023-01-30T12:12:45.384Z,77.11
2023-01-30T12:13:45.394Z,77.11
2023-01-30T12:14:46.051Z,76.76
2023-01-30T12:15:45.311Z,76.80
2023-01-30T12:16:45.371Z,76.46
2023-01-30T12:17:45.252Z,76.66
2023-01-30T12:18:45.315Z,76.66
2023-01-30T12:19:45.236Z,76.56
2023-01-30T12:20:45.252Z,76.66
2023-01-30T12:21:45.321Z,76.66
2023-01-30T12:22:45.475Z,76.66
2023-01-30T12:23:45.207Z,76.76
2023-01-30T12:24:45.434Z,76.46
2023-01-30T12:25:45.193Z,76.49
2023-01-30T12:26:45.205Z,76.70
2023-01-30T12:27:45.407Z,77.01
2023-01-30T12:28:45.159Z,76.90
2023-01-30T12:29:45.210Z,76.59
2023-01-30T12:30:45.198Z,76.59
2023-01-30T12:31:45.136Z,77.01
2023-01-30T12:32:45.133Z,76.90
2023-01-30T12:33:45.132Z,76.94
2023-01-30T12:34:45.155Z,77.25
2023-01-30T12:35:45.083Z,77.56
2023-01-30T12:36:45.095Z,77.66
2023-01-30T12:37:45.161Z,77.45
2023-01-30T12:38:45.175Z,77.66
2023-01-30T12:39:46.673Z,77.25
2023-01-30T12:40:47.061Z,77.25
2023-01-30T12:41:45.017Z,77.15
2023-01-30T12:42:45.020Z,76.94
2023-01-30T12:43:45.037Z,76.94
2023-01-30T12:44:45.010Z,76.70
2023-01-30T12:45:44.973Z,76.39
2023-01-30T12:46:44.970Z,76.29
2023-01-30T12:47:44.984Z,76.32
2023-01-30T12:48:48.831Z,76.21
2023-01-30T12:49:45.061Z,76.21
2023-01-30T12:50:44.926Z,76.21
2023-01-30T12:51:44.942Z,76.12
2023-01-30T12:52:44.901Z,76.21
2023-01-30T12:53:44.895Z,76.01